Time;durP1;ratioP1;P1;durP2;ratioP2;P2;SDS_P1;SDS_P2;PMS_P1;PMS_P2;Temp;Humidity;BMP_temperature;BMP_pressure;BME280_temperature;BME280_humidity;BME280_pressure;Samples;Min_cycle;Max_cycle;Signal;HPM_P1;HPM_P2
2021/07/12 00:02:15;;;;;;;20.10;11.93;;;18.90;99.90;;;;;;4993564;28;20348;-90
2021/07/12 00:04:41;;;;;;;15.50;10.27;;;18.90;99.90;;;;;;4993097;28;20219;-90
2021/07/12 00:07:06;;;;;;;14.80;9.17;;;18.80;99.90;;;;;;5001864;28;20195;-90
2021/07/12 00:09:32;;;;;;;16.33;11.43;;;18.90;99.90;;;;;;4992802;28;20198;-90
2021/07/12 00:11:58;;;;;;;19.30;11.07;;;18.90;99.90;;;;;;4966147;28;20229;-90
2021/07/12 00:14:24;;;;;;;15.83;10.30;;;18.90;99.90;;;;;;4975386;28;20249;-90
2021/07/12 00:16:50;;;;;;;17.53;11.17;;;18.90;99.90;;;;;;5001339;28;20201;-91
2021/07/12 00:19:15;;;;;;;19.30;11.07;;;18.90;99.90;;;;;;4992842;28;20190;-90
2021/07/12 00:21:41;;;;;;;17.73;11.27;;;18.90;99.90;;;;;;5008130;28;20282;-90
2021/07/12 00:24:07;;;;;;;18.70;12.30;;;18.90;99.90;;;;;;4992224;28;20313;-90
2021/07/12 00:26:34;;;;;;;19.73;11.33;;;18.90;99.90;;;;;;5007917;28;20215;-90
2021/07/12 00:28:59;;;;;;;25.00;13.57;;;18.90;99.90;;;;;;5008567;28;20215;-89
2021/07/12 00:31:25;;;;;;;19.10;11.17;;;18.90;99.90;;;;;;5009416;28;20210;-90
2021/07/12 00:33:51;;;;;;;16.63;11.50;;;19.00;99.90;;;;;;4992848;28;20229;-90
2021/07/12 00:36:17;;;;;;;19.10;12.50;;;18.90;99.90;;;;;;5008459;28;20215;-91
2021/07/12 00:38:42;;;;;;;18.10;11.83;;;18.90;99.90;;;;;;4993995;28;20591;-91
2021/07/12 00:41:08;;;;;;;17.07;11.07;;;18.90;99.90;;;;;;4994179;28;20214;-91
2021/07/12 00:43:35;;;;;;;21.77;11.00;;;18.90;99.90;;;;;;5011101;28;20687;-90
2021/07/12 00:46:02;;;;;;;18.60;12.30;;;18.90;99.90;;;;;;5018154;28;20186;-90
2021/07/12 00:48:28;;;;;;;19.27;12.23;;;18.90;99.90;;;;;;5013021;28;20227;-91
2021/07/12 00:50:55;;;;;;;22.13;12.53;;;19.00;99.90;;;;;;5023172;28;20682;-90
2021/07/12 00:53:21;;;;;;;20.23;11.13;;;19.00;99.90;;;;;;5023425;28;20698;-90
2021/07/12 00:55:49;;;;;;;20.77;12.53;;;19.00;99.90;;;;;;5022550;28;20266;-90
2021/07/12 00:58:21;;;;;;;19.33;12.40;;;19.00;99.90;;;;;;5019630;28;20172;-91
2021/07/12 01:00:50;;;;;;;18.00;11.97;;;19.00;99.90;;;;;;5027204;28;20737;-90
2021/07/12 01:03:17;;;;;;;20.20;12.13;;;19.10;99.90;;;;;;5017517;28;20296;-89
2021/07/12 01:05:44;;;;;;;18.97;11.60;;;19.00;99.90;;;;;;5008163;28;20305;-90
2021/07/12 01:08:10;;;;;;;21.37;11.27;;;19.00;99.90;;;;;;5014576;28;20241;-90
2021/07/12 01:10:37;;;;;;;17.27;11.57;;;18.90;99.90;;;;;;5013668;28;20699;-90
2021/07/12 01:13:22;;;;;;;19.00;11.13;;;18.90;99.90;;;;;;5008971;28;20191;-90
2021/07/12 01:16:06;;;;;;;16.73;10.10;;;18.90;99.90;;;;;;5016048;28;20237;-90
2021/07/12 01:18:46;;;;;;;18.60;12.00;;;18.80;99.90;;;;;;5018332;28;20309;-90
2021/07/12 01:21:21;;;;;;;20.83;13.37;;;18.80;99.90;;;;;;5016491;28;20239;-90
2021/07/12 01:23:50;;;;;;;23.00;13.33;;;18.70;99.90;;;;;;5008798;28;20791;-90
2021/07/12 01:26:48;;;;;;;26.97;13.10;;;18.70;99.90;;;;;;5013889;28;20225;-90
2021/07/12 01:29:58;;;;;;;24.93;13.13;;;18.80;99.90;;;;;;5014320;28;20211;-90
2021/07/12 01:32:29;;;;;;;23.77;14.13;;;18.80;99.90;;;;;;5016279;28;20219;-90
2021/07/12 01:35:15;;;;;;;24.90;14.17;;;18.70;99.90;;;;;;5018462;28;20215;-90
2021/07/12 01:37:50;;;;;;;26.30;14.27;;;18.70;99.90;;;;;;5017457;28;20179;-90
2021/07/12 01:40:34;;;;;;;27.27;15.17;;;18.70;99.90;;;;;;5017426;28;20552;-90
2021/07/12 01:43:52;;;;;;;25.37;15.60;;;18.70;99.90;;;;;;5017972;28;20219;-90
2021/07/12 01:46:28;;;;;;;20.73;12.17;;;18.70;99.90;;;;;;4956650;28;20221;-90
2021/07/12 01:49:12;;;;;;;24.67;13.80;;;18.70;99.90;;;;;;5014620;28;20710;-91
2021/07/12 01:52:03;;;;;;;25.60;14.07;;;18.70;99.90;;;;;;5015269;28;20255;-90
2021/07/12 01:54:43;;;;;;;22.37;13.87;;;18.80;99.90;;;;;;5016254;28;20222;-90
2021/07/12 01:57:20;;;;;;;28.33;15.73;;;18.70;99.90;;;;;;5015096;28;20217;-90
2021/07/12 01:59:58;;;;;;;29.90;15.50;;;18.70;99.90;;;;;;5016359;28;20233;-90
2021/07/12 02:02:28;;;;;;;21.27;13.43;;;18.70;99.90;;;;;;5013826;28;20215;-90
2021/07/12 02:04:55;;;;;;;28.03;15.07;;;18.70;99.90;;;;;;5015152;28;20269;-89
2021/07/12 02:07:23;;;;;;;25.33;14.60;;;18.70;99.90;;;;;;5015570;28;20250;-89
2021/07/12 02:09:50;;;;;;;23.20;14.37;;;18.70;99.90;;;;;;5000080;28;20215;-90
2021/07/12 02:12:17;;;;;;;22.50;14.57;;;18.70;99.90;;;;;;5016877;28;20213;-89
2021/07/12 02:14:44;;;;;;;28.67;14.87;;;18.60;99.90;;;;;;4999510;28;20219;-89
2021/07/12 02:17:11;;;;;;;24.47;14.90;;;18.60;99.90;;;;;;5006731;28;20222;-89
2021/07/12 02:19:39;;;;;;;21.27;12.60;;;18.60;99.90;;;;;;5015172;28;20226;-89
2021/07/12 02:22:05;;;;;;;25.70;13.73;;;18.60;99.90;;;;;;4998118;28;20235;-90
2021/07/12 02:24:32;;;;;;;24.80;14.20;;;18.60;99.90;;;;;;5007237;28;20717;-90
2021/07/12 02:27:00;;;;;;;23.83;13.37;;;18.60;99.90;;;;;;5007698;28;20215;-90
2021/07/12 02:29:27;;;;;;;21.73;13.57;;;18.60;99.90;;;;;;5016578;28;20210;-90
2021/07/12 02:31:55;;;;;;;20.93;12.87;;;18.50;99.90;;;;;;5013777;28;20271;-90
2021/07/12 02:34:23;;;;;;;21.43;13.43;;;18.60;99.90;;;;;;5007637;28;20183;-90
2021/07/12 02:36:51;;;;;;;25.87;14.17;;;18.60;99.90;;;;;;5014546;28;20359;-90
2021/07/12 02:39:17;;;;;;;24.87;14.60;;;18.60;99.90;;;;;;5006621;28;20222;-90
2021/07/12 02:41:46;;;;;;;21.43;13.37;;;18.60;99.90;;;;;;5007429;28;20876;-90
2021/07/12 02:44:13;;;;;;;22.47;12.97;;;18.60;99.90;;;;;;5014236;28;20817;-90
2021/07/12 02:46:40;;;;;;;26.63;13.53;;;18.70;99.90;;;;;;5007602;28;20337;-90
2021/07/12 02:49:06;;;;;;;21.87;13.83;;;18.70;99.90;;;;;;5016343;28;20199;-90
2021/07/12 02:51:37;;;;;;;25.70;14.83;;;18.70;99.90;;;;;;4991411;28;20230;-89
2021/07/12 02:54:05;;;;;;;27.60;14.10;;;18.70;99.90;;;;;;5016646;28;20222;-90
2021/07/12 02:56:32;;;;;;;25.23;15.27;;;18.70;99.90;;;;;;5007166;28;20219;-90
2021/07/12 02:58:58;;;;;;;22.43;13.73;;;18.70;99.90;;;;;;5009512;28;20700;-90
2021/07/12 03:01:24;;;;;;;23.53;14.47;;;18.70;99.90;;;;;;5011594;28;20211;-89
2021/07/12 03:03:50;;;;;;;22.73;15.07;;;18.70;99.90;;;;;;5018452;28;20581;-90
2021/07/12 03:06:18;;;;;;;23.17;14.73;;;18.70;99.90;;;;;;5010593;28;20218;-90
2021/07/12 03:09:16;;;;;;;28.40;15.80;;;18.70;99.90;;;;;;5002499;28;20226;-89
2021/07/12 03:12:08;;;;;;;22.43;13.33;;;18.60;99.90;;;;;;4998171;28;20242;-89
2021/07/12 03:14:47;;;;;;;21.70;12.90;;;18.60;99.90;;;;;;5029224;28;20246;-90
2021/07/12 03:17:17;;;;;;;22.87;12.90;;;18.40;99.90;;;;;;5019232;28;20647;-89
2021/07/12 03:19:45;;;;;;;20.47;12.17;;;18.40;99.90;;;;;;5018242;28;20183;-89
2021/07/12 03:22:14;;;;;;;22.17;13.73;;;18.30;99.90;;;;;;5016923;28;20782;-90
2021/07/12 03:24:41;;;;;;;21.40;13.33;;;18.30;99.90;;;;;;5018652;28;20756;-89
2021/07/12 03:27:10;;;;;;;20.47;13.03;;;18.30;99.90;;;;;;5017547;28;20583;-89
2021/07/12 03:29:38;;;;;;;24.00;12.47;;;18.30;99.90;;;;;;5016847;28;20578;-90
2021/07/12 03:32:05;;;;;;;22.30;14.27;;;18.30;99.90;;;;;;5010587;28;20645;-90
2021/07/12 03:34:32;;;;;;;24.17;14.17;;;18.30;99.90;;;;;;5011447;28;20730;-90
2021/07/12 03:37:00;;;;;;;21.83;14.00;;;18.30;99.90;;;;;;5011885;28;20723;-89
2021/07/12 03:39:27;;;;;;;29.67;14.23;;;18.30;99.90;;;;;;5018832;28;20217;-90
2021/07/12 03:41:54;;;;;;;23.53;13.33;;;18.30;99.90;;;;;;5019781;28;20234;-91
2021/07/12 03:44:20;;;;;;;21.20;12.63;;;18.40;99.90;;;;;;5019647;28;20218;-91
2021/07/12 03:46:46;;;;;;;23.73;14.37;;;18.40;99.90;;;;;;4993762;28;20190;-90
2021/07/12 03:49:14;;;;;;;23.10;13.40;;;18.40;99.90;;;;;;4993785;28;20643;-90
2021/07/12 03:51:41;;;;;;;22.43;13.87;;;18.50;99.90;;;;;;5018141;28;20258;-90
2021/07/12 03:54:07;;;;;;;24.60;14.37;;;18.60;99.90;;;;;;5010144;28;20214;-90
2021/07/12 03:56:33;;;;;;;28.20;16.57;;;18.60;99.90;;;;;;4994102;28;20219;-89
2021/07/12 03:58:59;;;;;;;27.63;16.47;;;18.60;99.90;;;;;;5017872;28;20568;-91
2021/07/12 04:01:25;;;;;;;26.17;14.93;;;18.70;99.90;;;;;;5010588;28;20348;-90
2021/07/12 04:03:53;;;;;;;34.33;17.80;;;18.70;99.90;;;;;;5009358;28;20215;-91
2021/07/12 04:06:19;;;;;;;22.77;14.63;;;18.70;99.90;;;;;;5018274;28;20241;-90
2021/07/12 04:08:45;;;;;;;24.77;15.47;;;18.70;99.90;;;;;;5009136;28;20218;-90
2021/07/12 04:11:12;;;;;;;29.87;16.03;;;18.60;99.90;;;;;;5017443;28;20230;-90
2021/07/12 04:13:39;;;;;;;26.30;15.47;;;18.50;99.90;;;;;;4995702;28;20219;-92
2021/07/12 04:16:05;;;;;;;26.67;13.37;;;18.50;99.90;;;;;;4974553;28;20219;-89
2021/07/12 04:18:32;;;;;;;23.23;12.27;;;18.60;99.90;;;;;;5013031;28;20193;-90
2021/07/12 04:20:58;;;;;;;20.20;13.23;;;18.60;99.90;;;;;;5019775;28;20214;-90
2021/07/12 04:23:24;;;;;;;20.13;13.50;;;18.60;99.90;;;;;;5010958;28;20221;-91
2021/07/12 04:25:50;;;;;;;18.07;12.27;;;18.70;99.90;;;;;;4998333;28;20676;-92
2021/07/12 04:28:15;;;;;;;22.53;13.43;;;18.60;99.90;;;;;;5021479;28;20214;-90
2021/07/12 04:30:41;;;;;;;21.50;12.97;;;18.60;99.90;;;;;;5015080;28;20230;-90
2021/07/12 04:33:07;;;;;;;24.67;16.10;;;18.60;99.90;;;;;;5013450;28;20298;-91
2021/07/12 04:35:33;;;;;;;24.77;13.77;;;18.60;99.90;;;;;;5012266;28;20253;-91
2021/07/12 04:37:59;;;;;;;22.00;13.80;;;18.60;99.90;;;;;;4995797;28;20187;-92
2021/07/12 04:40:25;;;;;;;23.00;14.37;;;18.60;99.90;;;;;;4996766;28;21115;-90
2021/07/12 04:42:51;;;;;;;25.67;14.13;;;18.50;99.90;;;;;;5004721;28;20218;-91
2021/07/12 04:45:17;;;;;;;23.03;14.90;;;18.60;99.90;;;;;;5020475;28;20229;-90
2021/07/12 04:47:42;;;;;;;27.57;14.93;;;18.60;99.90;;;;;;4994111;28;20227;-92
2021/07/12 04:50:10;;;;;;;26.37;16.07;;;18.70;99.90;;;;;;5019536;28;20182;-92
2021/07/12 04:52:36;;;;;;;26.37;15.17;;;18.80;99.90;;;;;;5020093;28;20186;-91
2021/07/12 04:55:05;;;;;;;27.13;16.00;;;18.70;99.90;;;;;;4976444;28;20234;-92
2021/07/12 04:57:31;;;;;;;28.83;15.73;;;18.70;99.90;;;;;;5018619;28;20198;-90
2021/07/12 04:59:57;;;;;;;27.77;16.60;;;18.70;99.90;;;;;;5001417;28;20230;-92
2021/07/12 05:02:22;;;;;;;25.43;15.60;;;18.80;99.90;;;;;;4996669;28;20574;-90
2021/07/12 05:04:48;;;;;;;26.90;14.73;;;18.70;99.90;;;;;;5004582;28;20221;-92
2021/07/12 05:07:14;;;;;;;24.57;14.67;;;18.80;99.90;;;;;;5009081;28;20731;-92
2021/07/12 05:09:40;;;;;;;22.97;15.37;;;18.80;99.90;;;;;;4941158;28;20267;-91
2021/07/12 05:12:08;;;;;;;22.57;14.53;;;18.80;99.90;;;;;;5015170;28;20281;-91
2021/07/12 05:14:37;;;;;;;29.10;16.63;;;18.90;99.90;;;;;;5038598;28;20240;-91
2021/07/12 05:17:04;;;;;;;24.20;15.47;;;18.90;99.90;;;;;;5018190;28;20708;-92
2021/07/12 05:19:30;;;;;;;26.53;15.77;;;19.00;99.90;;;;;;5004629;28;20226;-91
2021/07/12 05:21:55;;;;;;;29.80;15.70;;;18.90;99.90;;;;;;4992527;28;20245;-90
2021/07/12 05:24:21;;;;;;;27.53;16.07;;;18.90;99.90;;;;;;4995280;28;20179;-91
2021/07/12 05:26:47;;;;;;;25.77;15.10;;;19.00;99.90;;;;;;4994890;28;20682;-90
2021/07/12 05:29:13;;;;;;;26.20;16.13;;;19.10;99.90;;;;;;4995987;28;20202;-91
2021/07/12 05:31:38;;;;;;;25.77;15.93;;;19.20;99.90;;;;;;5021327;28;20210;-89
2021/07/12 05:34:04;;;;;;;28.67;17.17;;;19.30;99.90;;;;;;4995994;28;20961;-91
2021/07/12 05:36:30;;;;;;;27.60;15.37;;;19.40;99.90;;;;;;5012964;28;20210;-89
2021/07/12 05:38:56;;;;;;;25.10;14.93;;;19.40;99.90;;;;;;5010393;28;20203;-90
2021/07/12 05:41:22;;;;;;;26.73;15.63;;;19.50;99.90;;;;;;5022774;28;20222;-91
2021/07/12 05:43:48;;;;;;;25.20;15.23;;;19.50;99.90;;;;;;4994952;28;20203;-90
2021/07/12 05:46:14;;;;;;;27.13;15.07;;;19.50;99.90;;;;;;5018759;28;20733;-91
2021/07/12 05:48:39;;;;;;;28.80;16.30;;;19.60;99.90;;;;;;5021887;28;20659;-90
2021/07/12 05:51:05;;;;;;;27.73;15.73;;;19.70;99.90;;;;;;4995013;28;20801;-90
2021/07/12 05:53:31;;;;;;;26.73;16.53;;;19.80;99.90;;;;;;5011235;28;20210;-91
2021/07/12 05:55:57;;;;;;;23.73;15.57;;;19.90;99.90;;;;;;4994757;28;20221;-89
2021/07/12 05:58:23;;;;;;;26.13;14.90;;;20.00;99.90;;;;;;5001686;28;20237;-90
2021/07/12 06:00:48;;;;;;;29.30;16.07;;;20.10;99.90;;;;;;4994119;28;20210;-89
2021/07/12 06:03:14;;;;;;;27.47;15.87;;;20.10;99.90;;;;;;5010310;28;20559;-89
2021/07/12 06:05:40;;;;;;;24.03;14.23;;;20.30;99.90;;;;;;4993157;28;20233;-89
2021/07/12 06:08:06;;;;;;;27.50;15.00;;;20.50;99.90;;;;;;5006326;28;20218;-89
2021/07/12 06:10:32;;;;;;;29.73;17.73;;;20.70;99.90;;;;;;5017233;28;20271;-89
2021/07/12 06:12:57;;;;;;;26.80;15.47;;;20.70;99.90;;;;;;4999688;28;20178;-89
2021/07/12 06:15:23;;;;;;;26.53;15.73;;;20.90;99.90;;;;;;4993434;28;20219;-88
2021/07/12 06:17:51;;;;;;;24.23;14.63;;;21.10;99.90;;;;;;4985210;28;20222;-88
2021/07/12 06:20:18;;;;;;;26.63;14.27;;;21.30;99.90;;;;;;5020652;28;20225;-90
2021/07/12 06:22:48;;;;;;;22.20;12.97;;;21.40;99.90;;;;;;5020472;28;20709;-90
2021/07/12 06:25:15;;;;;;;23.83;14.77;;;21.40;99.90;;;;;;5020176;28;20685;-89
2021/07/12 06:27:41;;;;;;;21.70;12.73;;;21.40;99.90;;;;;;5039828;28;20193;-90
2021/07/12 06:30:09;;;;;;;22.97;13.50;;;21.40;99.90;;;;;;5011554;28;20231;-91
2021/07/12 06:32:35;;;;;;;21.70;12.57;;;21.50;99.90;;;;;;5009590;28;20232;-90
2021/07/12 06:35:02;;;;;;;22.33;14.83;;;21.50;99.90;;;;;;5009047;28;20241;-90
2021/07/12 06:37:28;;;;;;;24.00;15.33;;;21.50;99.90;;;;;;5026955;28;20226;-90
2021/07/12 06:39:54;;;;;;;18.73;12.00;;;21.70;99.90;;;;;;5018627;28;20206;-90
2021/07/12 06:42:20;;;;;;;22.37;13.17;;;21.90;99.90;;;;;;5024368;28;20268;-90
2021/07/12 06:44:46;;;;;;;21.37;13.27;;;22.30;99.90;;;;;;4984149;28;20261;-90
2021/07/12 06:47:11;;;;;;;20.27;12.77;;;22.50;99.90;;;;;;5028425;28;20182;-89
2021/07/12 06:49:37;;;;;;;22.17;12.07;;;22.60;99.90;;;;;;5016712;28;20218;-90
2021/07/12 06:52:03;;;;;;;20.80;13.10;;;22.80;99.90;;;;;;5027789;28;20209;-90
2021/07/12 06:54:29;;;;;;;16.03;11.20;;;23.00;99.90;;;;;;5017970;28;20249;-89
2021/07/12 06:56:57;;;;;;;19.43;13.33;;;23.20;99.90;;;;;;5013476;28;20850;-90
2021/07/12 06:59:23;;;;;;;24.50;12.47;;;23.40;99.90;;;;;;4995068;28;20237;-90
2021/07/12 07:01:52;;;;;;;19.33;12.07;;;23.30;99.90;;;;;;5040042;28;20195;-90
2021/07/12 07:04:18;;;;;;;18.13;11.43;;;23.20;99.90;;;;;;5033342;28;20190;-91
2021/07/12 07:06:46;;;;;;;17.17;11.32;;;23.10;99.90;;;;;;4965308;28;20209;-91
2021/07/12 07:09:12;;;;;;;16.58;11.27;;;23.10;99.90;;;;;;5020538;28;20306;-88
2021/07/12 07:11:38;;;;;;;17.33;12.52;;;23.00;99.90;;;;;;4997802;28;20738;-89
2021/07/12 07:14:04;;;;;;;17.67;10.50;;;22.90;99.90;;;;;;5016327;28;20529;-88
2021/07/12 07:16:30;;;;;;;19.65;12.98;;;22.80;99.90;;;;;;4985702;28;20698;-89
2021/07/12 07:18:57;;;;;;;19.50;12.13;;;22.60;99.90;;;;;;5028207;28;20277;-89
2021/07/12 07:21:23;;;;;;;17.03;11.30;;;22.80;99.90;;;;;;4944586;28;20237;-89
2021/07/12 07:23:49;;;;;;;16.03;12.17;;;22.80;99.90;;;;;;4974482;28;20666;-89
2021/07/12 07:26:15;;;;;;;17.90;11.52;;;23.10;99.90;;;;;;5020435;28;20186;-88
2021/07/12 07:28:41;;;;;;;17.20;11.50;;;23.40;99.90;;;;;;4997287;28;20272;-88
2021/07/12 07:31:06;;;;;;;14.93;11.20;;;23.70;99.90;;;;;;5008143;28;20221;-89
2021/07/12 07:33:32;;;;;;;17.02;11.20;;;23.70;99.90;;;;;;4991088;28;20234;-88
2021/07/12 07:35:59;;;;;;;18.33;11.88;;;23.70;99.90;;;;;;4998058;28;20190;-88
2021/07/12 07:38:25;;;;;;;16.48;11.13;;;23.90;99.90;;;;;;4989181;28;20356;-89
2021/07/12 07:40:51;;;;;;;22.50;10.82;;;23.80;99.90;;;;;;5020202;28;20199;-88
2021/07/12 07:43:17;;;;;;;16.50;11.00;;;24.10;99.90;;;;;;5005414;28;20750;-88
2021/07/12 07:45:43;;;;;;;15.25;11.45;;;24.70;99.90;;;;;;5007782;28;20186;-87
2021/07/12 07:48:09;;;;;;;17.15;11.70;;;24.90;99.90;;;;;;4947023;28;20206;-89
2021/07/12 07:50:37;;;;;;;17.20;11.38;;;25.00;99.90;;;;;;4928106;28;20233;-88
2021/07/12 07:53:07;;;;;;;18.00;11.80;;;25.40;99.90;;;;;;4997315;28;20195;-90
2021/07/12 07:55:33;;;;;;;16.70;11.55;;;25.80;99.90;;;;;;4965852;28;20670;-89
2021/07/12 07:57:59;;;;;;;14.77;10.65;;;25.70;99.90;;;;;;5039599;28;20183;-88
2021/07/12 08:00:26;;;;;;;15.27;10.43;;;25.40;99.90;;;;;;5022079;28;20649;-88
2021/07/12 08:02:52;;;;;;;18.70;11.70;;;25.40;99.90;;;;;;4989730;28;20301;-89
2021/07/12 08:05:19;;;;;;;15.98;11.40;;;25.20;99.90;;;;;;4979066;28;20215;-89
2021/07/12 08:07:45;;;;;;;17.30;10.43;;;25.20;99.90;;;;;;4979813;28;20674;-89
2021/07/12 08:10:14;;;;;;;12.85;8.52;;;25.20;99.90;;;;;;5025757;28;20193;-90
2021/07/12 08:12:41;;;;;;;15.57;10.43;;;25.20;99.90;;;;;;5000335;28;20307;-90
2021/07/12 08:15:09;;;;;;;11.25;9.15;;;25.40;99.90;;;;;;4959238;28;20210;-90
2021/07/12 08:17:37;;;;;;;14.10;9.98;;;25.30;99.90;;;;;;4975142;28;20225;-89
2021/07/12 08:20:05;;;;;;;18.48;9.90;;;25.20;99.90;;;;;;5027352;28;20620;-90
2021/07/12 08:22:31;;;;;;;15.27;10.18;;;25.10;99.90;;;;;;5007222;28;20356;-90
2021/07/12 08:24:57;;;;;;;15.18;10.48;;;24.80;99.90;;;;;;4970902;28;21635;-89
2021/07/12 08:27:23;;;;;;;13.02;10.35;;;24.80;99.90;;;;;;4952893;28;20302;-89
2021/07/12 08:29:48;;;;;;;11.02;9.35;;;24.80;99.90;;;;;;4947250;28;20212;-89
2021/07/12 08:32:14;;;;;;;15.43;10.20;;;25.00;99.90;;;;;;4961897;28;20295;-88
2021/07/12 08:34:42;;;;;;;12.32;9.18;;;25.10;99.90;;;;;;5012285;28;20217;-88
2021/07/12 08:37:09;;;;;;;12.30;9.25;;;25.40;99.90;;;;;;4993512;28;20194;-88
2021/07/12 08:39:36;;;;;;;11.90;9.43;;;25.30;99.90;;;;;;4995906;28;20218;-89
2021/07/12 08:42:02;;;;;;;13.57;8.98;;;24.90;99.90;;;;;;5021913;28;20692;-87
2021/07/12 08:44:28;;;;;;;15.35;9.52;;;24.90;99.90;;;;;;4939085;28;20206;-88
2021/07/12 08:46:54;;;;;;;14.32;9.52;;;25.30;99.90;;;;;;4996535;28;20213;-87
2021/07/12 08:49:20;;;;;;;11.90;8.25;;;25.50;99.90;;;;;;5010153;28;20175;-88
2021/07/12 08:51:45;;;;;;;14.95;9.45;;;25.50;99.90;;;;;;4945259;28;20202;-86
2021/07/12 08:54:11;;;;;;;14.73;9.38;;;25.80;99.90;;;;;;4922648;28;20216;-87
2021/07/12 08:56:37;;;;;;;10.95;8.82;;;27.00;99.90;;;;;;5003012;28;20234;-86
2021/07/12 08:59:29;;;;;;;15.10;9.90;;;27.10;99.90;;;;;;4971169;28;20219;-87
2021/07/12 09:02:21;;;;;;;15.05;10.48;;;27.60;99.90;;;;;;4969604;28;20210;-87
2021/07/12 09:04:49;;;;;;;13.48;10.05;;;27.60;99.90;;;;;;4998695;28;20209;-89
2021/07/12 09:07:23;;;;;;;15.48;10.52;;;27.50;99.90;;;;;;5021201;28;20175;-87
2021/07/12 09:10:11;;;;;;;13.98;9.77;;;27.40;99.90;;;;;;4942080;28;21153;-88
2021/07/12 09:12:48;;;;;;;12.20;9.27;;;27.50;99.90;;;;;;4926153;28;20217;-86
2021/07/12 09:15:24;;;;;;;15.35;10.30;;;27.40;99.90;;;;;;5037054;28;20198;-87
2021/07/12 09:17:52;;;;;;;11.90;9.20;;;27.50;99.90;;;;;;5001989;28;20257;-86
2021/07/12 09:20:31;;;;;;;13.68;9.32;;;26.80;99.90;;;;;;4976620;28;20532;-87
2021/07/12 09:22:58;;;;;;;12.63;9.60;;;25.80;99.90;;;;;;4988457;28;20222;-86
2021/07/12 09:25:30;;;;;;;12.30;8.98;;;26.00;99.90;;;;;;4982949;28;20240;-87
2021/07/12 09:27:56;;;;;;;11.80;8.68;;;25.70;99.90;;;;;;5018159;28;20225;-88
2021/07/12 09:30:22;;;;;;;14.13;9.52;;;25.30;99.90;;;;;;5008768;28;20191;-88
2021/07/12 09:32:52;;;;;;;14.15;10.15;;;25.60;99.90;;;;;;4932109;28;20209;-88
2021/07/12 09:35:20;;;;;;;12.35;8.15;;;26.50;99.90;;;;;;4956598;28;20231;-89
2021/07/12 09:37:57;;;;;;;11.38;7.97;;;26.50;99.90;;;;;;4958322;28;20195;-89
2021/07/12 09:40:23;;;;;;;10.63;7.72;;;26.40;99.90;;;;;;4975069;28;20217;-88
2021/07/12 09:42:51;;;;;;;13.55;8.70;;;26.50;99.90;;;;;;4931942;28;20300;-87
2021/07/12 09:45:19;;;;;;;12.15;8.68;;;26.10;99.90;;;;;;4984910;28;21467;-88
2021/07/12 09:47:46;;;;;;;14.45;6.68;;;25.70;99.90;;;;;;4920717;28;20210;-87
2021/07/12 09:50:15;;;;;;;10.68;7.13;;;25.10;99.90;;;;;;5019111;28;20642;-87
2021/07/12 09:52:43;;;;;;;8.98;6.13;;;24.80;99.90;;;;;;5017694;28;20266;-86
2021/07/12 09:55:15;;;;;;;10.07;7.32;;;24.40;99.90;;;;;;4944889;28;20323;-87
2021/07/12 09:57:41;;;;;;;8.60;7.63;;;24.20;99.90;;;;;;4968544;28;20205;-88
2021/07/12 10:00:09;;;;;;;11.52;7.90;;;24.20;99.90;;;;;;4950835;28;21102;-88
2021/07/12 10:02:37;;;;;;;11.35;7.22;;;24.20;99.90;;;;;;4928408;28;20241;-87
2021/07/12 10:05:06;;;;;;;9.20;6.65;;;24.50;99.90;;;;;;5019594;28;20186;-86
2021/07/12 10:07:32;;;;;;;10.43;6.45;;;24.50;99.90;;;;;;5038945;28;20201;-88
2021/07/12 10:10:00;;;;;;;9.20;6.88;;;24.60;99.90;;;;;;4933448;28;20249;-86
2021/07/12 10:12:27;;;;;;;9.13;6.70;;;24.80;99.90;;;;;;5014420;28;20214;-88
2021/07/12 10:14:54;;;;;;;10.50;8.38;;;24.50;99.90;;;;;;4952915;28;20572;-88
2021/07/12 10:17:21;;;;;;;7.57;6.38;;;24.40;99.90;;;;;;4992388;28;20202;-86
2021/07/12 10:19:47;;;;;;;8.68;7.03;;;24.20;99.90;;;;;;4933207;28;20676;-88
2021/07/12 10:22:16;;;;;;;13.50;6.60;;;23.80;99.90;;;;;;5020355;28;20237;-87
2021/07/12 10:24:47;;;;;;;9.15;6.15;;;23.40;99.90;;;;;;5003949;28;20182;-87
2021/07/12 10:27:28;;;;;;;7.57;6.55;;;23.20;99.90;;;;;;5001549;28;20198;-87
2021/07/12 10:29:57;;;;;;;9.00;6.13;;;23.20;99.90;;;;;;5011942;28;20186;-87
2021/07/12 10:32:25;;;;;;;8.73;5.95;;;23.20;99.90;;;;;;5019943;28;20857;-87
2021/07/12 10:34:56;;;;;;;8.00;6.00;;;23.30;99.90;;;;;;5019591;28;20230;-88
2021/07/12 10:37:24;;;;;;;8.20;6.18;;;23.50;99.90;;;;;;5011419;28;20612;-88
2021/07/12 10:40:07;;;;;;;8.85;6.78;;;23.60;99.90;;;;;;5016762;28;20213;-85
2021/07/12 10:42:42;;;;;;;9.35;6.45;;;23.60;99.90;;;;;;5019563;28;20267;-86
2021/07/12 10:45:14;;;;;;;10.10;6.25;;;24.00;99.90;;;;;;5019232;28;20666;-86
2021/07/12 10:48:04;;;;;;;10.35;7.43;;;24.60;99.90;;;;;;5020332;28;20550;-87
2021/07/12 10:50:36;;;;;;;8.60;6.05;;;24.90;99.90;;;;;;5019706;28;20197;-87
2021/07/12 10:53:15;;;;;;;10.45;7.10;;;24.70;99.90;;;;;;5018485;28;20201;-88
2021/07/12 10:55:43;;;;;;;9.52;6.78;;;24.40;99.90;;;;;;5023368;28;20191;-87
2021/07/12 10:58:20;;;;;;;9.55;7.50;;;24.30;99.90;;;;;;5012102;28;21073;-87
2021/07/12 11:00:47;;;;;;;11.15;7.18;;;24.10;99.90;;;;;;5020461;28;20195;-88
2021/07/12 11:03:38;;;;;;;10.63;7.38;;;24.50;99.90;;;;;;5011229;28;20194;-88
2021/07/12 11:06:09;;;;;;;11.50;7.60;;;24.90;99.90;;;;;;5019685;28;20677;-87
2021/07/12 11:08:40;;;;;;;10.65;7.70;;;25.00;99.90;;;;;;5036612;28;20186;-88
2021/07/12 11:11:06;;;;;;;13.10;7.35;;;25.30;99.90;;;;;;5017152;28;20229;-87
2021/07/12 11:13:54;;;;;;;9.27;7.35;;;25.50;99.90;;;;;;5020011;28;20284;-89
2021/07/12 11:16:35;;;;;;;10.32;7.50;;;24.90;99.90;;;;;;5018194;28;20602;-89
2021/07/12 11:19:25;;;;;;;12.13;8.05;;;25.20;99.90;;;;;;5020079;28;20197;-88
2021/07/12 11:21:52;;;;;;;9.55;6.90;;;25.30;99.90;;;;;;5025694;28;20222;-88
2021/07/12 11:24:22;;;;;;;13.30;9.13;;;25.80;99.90;;;;;;5014717;28;20677;-87
2021/07/12 11:26:53;;;;;;;12.68;7.47;;;25.80;99.90;;;;;;5015983;28;20708;-86
2021/07/12 11:29:25;;;;;;;12.50;6.75;;;25.40;99.90;;;;;;5041390;28;20178;-88
2021/07/12 11:31:51;;;;;;;9.95;6.45;;;25.50;99.90;;;;;;5025334;28;20630;-87
2021/07/12 11:34:24;;;;;;;11.02;7.78;;;25.60;99.90;;;;;;5015504;28;20643;-86
2021/07/12 11:36:56;;;;;;;8.82;6.97;;;26.10;99.90;;;;;;5024750;28;20183;-88
2021/07/12 11:39:23;;;;;;;10.95;7.13;;;26.30;99.90;;;;;;5022465;28;21199;-87
2021/07/12 11:41:50;;;;;;;11.38;6.95;;;26.00;99.90;;;;;;5024240;28;20236;-87
2021/07/12 11:44:18;;;;;;;10.77;7.47;;;25.60;99.90;;;;;;5024353;28;20181;-87
2021/07/12 11:46:44;;;;;;;11.15;7.28;;;25.20;99.90;;;;;;5025302;28;20525;-87
2021/07/12 11:49:11;;;;;;;8.85;6.35;;;25.30;99.90;;;;;;5023859;28;20183;-88
2021/07/12 11:51:38;;;;;;;9.02;6.95;;;25.00;99.90;;;;;;5024121;28;20258;-89
2021/07/12 11:54:17;;;;;;;9.02;6.97;;;24.80;99.90;;;;;;5024595;28;20240;-87
2021/07/12 11:57:03;;;;;;;10.10;6.97;;;25.00;99.90;;;;;;5022956;28;20193;-88
2021/07/12 11:59:35;;;;;;;9.75;6.50;;;24.70;99.90;;;;;;5021683;28;20190;-87
2021/07/12 12:02:07;;;;;;;11.35;7.50;;;24.50;99.90;;;;;;5022892;28;20203;-88
2021/07/12 12:04:53;;;;;;;11.80;7.97;;;24.60;99.90;;;;;;5022166;28;20587;-88
2021/07/12 12:07:42;;;;;;;11.73;8.30;;;24.10;99.90;;;;;;5025772;28;20182;-88
2021/07/12 12:10:23;;;;;;;11.13;8.38;;;24.50;99.90;;;;;;5020334;28;20197;-87
2021/07/12 12:13:01;;;;;;;10.32;8.02;;;24.50;99.90;;;;;;5021293;28;20187;-87
2021/07/12 12:15:36;;;;;;;11.10;8.32;;;24.20;99.90;;;;;;5022944;28;20309;-88
2021/07/12 12:18:20;;;;;;;12.82;8.70;;;24.10;99.90;;;;;;5015175;28;21152;-88
2021/07/12 12:20:49;;;;;;;14.35;7.97;;;23.80;99.90;;;;;;5025349;28;20189;-87
2021/07/12 12:23:17;;;;;;;10.77;7.95;;;24.20;99.90;;;;;;5022653;28;20223;-87
2021/07/12 12:25:52;;;;;;;11.45;7.15;;;24.50;99.90;;;;;;5019732;28;20195;-86
2021/07/12 12:28:30;;;;;;;11.05;8.43;;;24.70;99.90;;;;;;5031103;28;20200;-87
2021/07/12 12:31:08;;;;;;;28.67;10.00;;;24.60;99.90;;;;;;5018854;28;20178;-87
2021/07/12 12:33:40;;;;;;;13.85;8.00;;;24.80;99.90;;;;;;5039348;28;20201;-87
2021/07/12 12:36:18;;;;;;;9.88;7.30;;;24.60;99.90;;;;;;5029744;28;20193;-85
2021/07/12 12:39:00;;;;;;;10.38;7.18;;;24.90;99.90;;;;;;5023381;28;20182;-86
2021/07/12 12:41:29;;;;;;;10.70;6.95;;;25.40;99.90;;;;;;5019497;28;20201;-85
2021/07/12 12:44:10;;;;;;;12.60;7.22;;;25.60;99.90;;;;;;5022333;28;20642;-88